sensor_id;sensor_type;location;lat;lon;timestamp;P1;durP1;ratioP1;P2;durP2;ratioP2
69008;SDS011;56065;52.472;13.380;2023-08-17T00:02:12;5.60;;;1.80;;
69008;SDS011;56065;52.472;13.380;2023-08-17T00:04:38;7.57;;;1.95;;
69008;SDS011;56065;52.472;13.380;2023-08-17T00:07:04;5.90;;;1.90;;
69008;SDS011;56065;52.472;13.380;2023-08-17T00:09:31;5.45;;;1.98;;
69008;SDS011;56065;52.472;13.380;2023-08-17T00:11:56;4.88;;;1.90;;
69008;SDS011;56065;52.472;13.380;2023-08-17T00:14:22;5.63;;;2.00;;
69008;SDS011;56065;52.472;13.380;2023-08-17T00:16:49;7.17;;;1.83;;
69008;SDS011;56065;52.472;13.380;2023-08-17T00:19:15;8.68;;;1.90;;
69008;SDS011;56065;52.472;13.380;2023-08-17T00:21:40;10.17;;;2.20;;
69008;SDS011;56065;52.472;13.380;2023-08-17T00:24:06;7.10;;;1.60;;
69008;SDS011;56065;52.472;13.380;2023-08-17T00:26:31;5.60;;;1.92;;
69008;SDS011;56065;52.472;13.380;2023-08-17T00:28:57;7.60;;;1.70;;
69008;SDS011;56065;52.472;13.380;2023-08-17T00:31:22;5.10;;;1.70;;
69008;SDS011;56065;52.472;13.380;2023-08-17T00:33:47;6.90;;;1.70;;
69008;SDS011;56065;52.472;13.380;2023-08-17T00:36:13;5.63;;;1.90;;
69008;SDS011;56065;52.472;13.380;2023-08-17T00:38:38;7.70;;;1.83;;
69008;SDS011;56065;52.472;13.380;2023-08-17T00:41:03;9.53;;;2.07;;
69008;SDS011;56065;52.472;13.380;2023-08-17T00:43:29;5.53;;;1.53;;
69008;SDS011;56065;52.472;13.380;2023-08-17T00:45:54;6.30;;;1.97;;
69008;SDS011;56065;52.472;13.380;2023-08-17T00:48:20;4.63;;;1.67;;
69008;SDS011;56065;52.472;13.380;2023-08-17T00:50:46;7.20;;;1.80;;
69008;SDS011;56065;52.472;13.380;2023-08-17T00:53:13;6.10;;;1.90;;
69008;SDS011;56065;52.472;13.380;2023-08-17T00:55:41;5.93;;;1.60;;
69008;SDS011;56065;52.472;13.380;2023-08-17T00:58:07;7.07;;;2.00;;
69008;SDS011;56065;52.472;13.380;2023-08-17T01:00:32;5.40;;;1.70;;
69008;SDS011;56065;52.472;13.380;2023-08-17T01:02:58;6.00;;;1.80;;
69008;SDS011;56065;52.472;13.380;2023-08-17T01:05:23;7.23;;;2.37;;
69008;SDS011;56065;52.472;13.380;2023-08-17T01:07:49;10.03;;;2.07;;
69008;SDS011;56065;52.472;13.380;2023-08-17T01:10:14;4.30;;;1.55;;
69008;SDS011;56065;52.472;13.380;2023-08-17T01:15:25;7.40;;;2.10;;
69008;SDS011;56065;52.472;13.380;2023-08-17T01:20:28;8.95;;;1.75;;
69008;SDS011;56065;52.472;13.380;2023-08-17T01:22:56;5.88;;;2.03;;
69008;SDS011;56065;52.472;13.380;2023-08-17T01:25:29;8.15;;;1.70;;
69008;SDS011;56065;52.472;13.380;2023-08-17T01:27:54;6.00;;;1.70;;
69008;SDS011;56065;52.472;13.380;2023-08-17T01:30:20;6.33;;;1.97;;
69008;SDS011;56065;52.472;13.380;2023-08-17T01:32:48;5.47;;;1.70;;
69008;SDS011;56065;52.472;13.380;2023-08-17T01:35:28;8.65;;;1.88;;
69008;SDS011;56065;52.472;13.380;2023-08-17T01:37:59;4.50;;;1.70;;
69008;SDS011;56065;52.472;13.380;2023-08-17T01:40:28;7.53;;;2.00;;
69008;SDS011;56065;52.472;13.380;2023-08-17T01:42:57;6.67;;;1.70;;
69008;SDS011;56065;52.472;13.380;2023-08-17T01:45:23;7.35;;;1.80;;
69008;SDS011;56065;52.472;13.380;2023-08-17T01:47:49;6.83;;;1.77;;
69008;SDS011;56065;52.472;13.380;2023-08-17T01:50:14;6.38;;;1.92;;
69008;SDS011;56065;52.472;13.380;2023-08-17T01:52:39;6.33;;;2.07;;
69008;SDS011;56065;52.472;13.380;2023-08-17T01:55:05;7.72;;;2.22;;
69008;SDS011;56065;52.472;13.380;2023-08-17T01:57:30;5.70;;;1.53;;
69008;SDS011;56065;52.472;13.380;2023-08-17T01:59:56;5.83;;;1.73;;
69008;SDS011;56065;52.472;13.380;2023-08-17T02:02:21;5.63;;;1.70;;
69008;SDS011;56065;52.472;13.380;2023-08-17T02:04:47;6.22;;;2.05;;
69008;SDS011;56065;52.472;13.380;2023-08-17T02:07:12;6.23;;;1.83;;
69008;SDS011;56065;52.472;13.380;2023-08-17T02:09:38;6.53;;;2.10;;
69008;SDS011;56065;52.472;13.380;2023-08-17T02:12:03;7.38;;;2.10;;
69008;SDS011;56065;52.472;13.380;2023-08-17T02:14:29;5.63;;;2.00;;
69008;SDS011;56065;52.472;13.380;2023-08-17T02:16:54;5.63;;;1.90;;
69008;SDS011;56065;52.472;13.380;2023-08-17T02:19:19;5.63;;;2.20;;
69008;SDS011;56065;52.472;13.380;2023-08-17T02:21:45;7.47;;;1.80;;
69008;SDS011;56065;52.472;13.380;2023-08-17T02:24:11;7.73;;;1.90;;
69008;SDS011;56065;52.472;13.380;2023-08-17T02:26:36;5.17;;;1.67;;
69008;SDS011;56065;52.472;13.380;2023-08-17T02:29:03;7.88;;;1.90;;
69008;SDS011;56065;52.472;13.380;2023-08-17T02:31:29;7.47;;;2.28;;
69008;SDS011;56065;52.472;13.380;2023-08-17T02:33:54;6.53;;;1.80;;
69008;SDS011;56065;52.472;13.380;2023-08-17T02:36:23;6.55;;;1.80;;
69008;SDS011;56065;52.472;13.380;2023-08-17T02:38:48;7.97;;;1.87;;
69008;SDS011;56065;52.472;13.380;2023-08-17T02:41:14;6.77;;;2.00;;
69008;SDS011;56065;52.472;13.380;2023-08-17T02:43:39;6.43;;;2.20;;
69008;SDS011;56065;52.472;13.380;2023-08-17T02:46:04;8.37;;;1.93;;
69008;SDS011;56065;52.472;13.380;2023-08-17T02:48:32;5.93;;;1.95;;
69008;SDS011;56065;52.472;13.380;2023-08-17T02:50:57;4.97;;;2.07;;
69008;SDS011;56065;52.472;13.380;2023-08-17T02:53:23;5.37;;;1.83;;
69008;SDS011;56065;52.472;13.380;2023-08-17T02:55:48;4.20;;;1.60;;
69008;SDS011;56065;52.472;13.380;2023-08-17T02:58:13;6.00;;;1.70;;
69008;SDS011;56065;52.472;13.380;2023-08-17T03:00:39;9.25;;;2.00;;
69008;SDS011;56065;52.472;13.380;2023-08-17T03:03:04;7.47;;;2.10;;
69008;SDS011;56065;52.472;13.380;2023-08-17T03:05:29;7.03;;;1.90;;
69008;SDS011;56065;52.472;13.380;2023-08-17T03:07:55;7.40;;;2.13;;
69008;SDS011;56065;52.472;13.380;2023-08-17T03:10:20;4.23;;;1.43;;
69008;SDS011;56065;52.472;13.380;2023-08-17T03:12:45;4.77;;;1.30;;
69008;SDS011;56065;52.472;13.380;2023-08-17T03:15:11;8.07;;;1.80;;
69008;SDS011;56065;52.472;13.380;2023-08-17T03:17:36;7.77;;;1.70;;
69008;SDS011;56065;52.472;13.380;2023-08-17T03:20:01;9.23;;;1.90;;
69008;SDS011;56065;52.472;13.380;2023-08-17T03:22:27;6.13;;;1.60;;
69008;SDS011;56065;52.472;13.380;2023-08-17T03:24:54;6.83;;;1.70;;
69008;SDS011;56065;52.472;13.380;2023-08-17T03:27:20;5.85;;;1.60;;
69008;SDS011;56065;52.472;13.380;2023-08-17T03:29:45;5.80;;;1.60;;
69008;SDS011;56065;52.472;13.380;2023-08-17T03:32:11;5.93;;;1.50;;
69008;SDS011;56065;52.472;13.380;2023-08-17T03:34:36;6.70;;;1.70;;
69008;SDS011;56065;52.472;13.380;2023-08-17T03:37:01;5.20;;;1.70;;
69008;SDS011;56065;52.472;13.380;2023-08-17T03:39:27;6.30;;;1.63;;
69008;SDS011;56065;52.472;13.380;2023-08-17T03:41:52;6.17;;;1.60;;
69008;SDS011;56065;52.472;13.380;2023-08-17T03:44:18;4.97;;;1.75;;
69008;SDS011;56065;52.472;13.380;2023-08-17T03:46:43;5.80;;;1.50;;
69008;SDS011;56065;52.472;13.380;2023-08-17T03:49:08;6.97;;;1.60;;
69008;SDS011;56065;52.472;13.380;2023-08-17T03:51:34;7.37;;;1.80;;
69008;SDS011;56065;52.472;13.380;2023-08-17T03:53:59;8.70;;;1.63;;
69008;SDS011;56065;52.472;13.380;2023-08-17T03:56:24;7.73;;;2.20;;
69008;SDS011;56065;52.472;13.380;2023-08-17T03:58:50;5.97;;;1.60;;
69008;SDS011;56065;52.472;13.380;2023-08-17T04:01:15;6.45;;;1.63;;
69008;SDS011;56065;52.472;13.380;2023-08-17T04:03:41;4.90;;;1.50;;
69008;SDS011;56065;52.472;13.380;2023-08-17T04:06:06;6.83;;;1.87;;
69008;SDS011;56065;52.472;13.380;2023-08-17T04:08:35;5.60;;;1.58;;
69008;SDS011;56065;52.472;13.380;2023-08-17T04:11:00;5.67;;;1.80;;
69008;SDS011;56065;52.472;13.380;2023-08-17T04:13:26;5.73;;;1.40;;
69008;SDS011;56065;52.472;13.380;2023-08-17T04:15:52;6.18;;;1.38;;
69008;SDS011;56065;52.472;13.380;2023-08-17T04:18:17;3.53;;;1.27;;
69008;SDS011;56065;52.472;13.380;2023-08-17T04:20:43;5.43;;;1.37;;
69008;SDS011;56065;52.472;13.380;2023-08-17T04:23:08;5.30;;;1.23;;
69008;SDS011;56065;52.472;13.380;2023-08-17T04:25:34;6.90;;;1.77;;
69008;SDS011;56065;52.472;13.380;2023-08-17T04:27:59;5.63;;;1.63;;
69008;SDS011;56065;52.472;13.380;2023-08-17T04:30:24;7.90;;;2.93;;
69008;SDS011;56065;52.472;13.380;2023-08-17T04:32:49;6.27;;;1.47;;
69008;SDS011;56065;52.472;13.380;2023-08-17T04:35:17;5.32;;;1.85;;
69008;SDS011;56065;52.472;13.380;2023-08-17T04:37:43;4.87;;;1.73;;
69008;SDS011;56065;52.472;13.380;2023-08-17T04:40:09;6.83;;;1.70;;
69008;SDS011;56065;52.472;13.380;2023-08-17T04:42:35;5.13;;;1.50;;
69008;SDS011;56065;52.472;13.380;2023-08-17T04:45:00;11.32;;;2.33;;
69008;SDS011;56065;52.472;13.380;2023-08-17T04:47:26;7.20;;;1.70;;
69008;SDS011;56065;52.472;13.380;2023-08-17T04:49:51;4.70;;;1.70;;
69008;SDS011;56065;52.472;13.380;2023-08-17T04:52:17;5.88;;;1.30;;
69008;SDS011;56065;52.472;13.380;2023-08-17T04:54:42;8.43;;;2.17;;
69008;SDS011;56065;52.472;13.380;2023-08-17T04:57:08;4.73;;;1.60;;
69008;SDS011;56065;52.472;13.380;2023-08-17T04:59:33;10.13;;;2.20;;
69008;SDS011;56065;52.472;13.380;2023-08-17T05:01:58;8.23;;;3.00;;
69008;SDS011;56065;52.472;13.380;2023-08-17T05:04:24;8.13;;;2.20;;
69008;SDS011;56065;52.472;13.380;2023-08-17T05:06:49;8.73;;;3.47;;
69008;SDS011;56065;52.472;13.380;2023-08-17T05:09:15;6.00;;;1.50;;
69008;SDS011;56065;52.472;13.380;2023-08-17T05:11:40;6.97;;;2.77;;
69008;SDS011;56065;52.472;13.380;2023-08-17T05:14:06;7.57;;;2.03;;
69008;SDS011;56065;52.472;13.380;2023-08-17T05:16:31;5.70;;;1.53;;
69008;SDS011;56065;52.472;13.380;2023-08-17T05:18:57;5.30;;;1.60;;
69008;SDS011;56065;52.472;13.380;2023-08-17T05:21:24;4.70;;;1.58;;
69008;SDS011;56065;52.472;13.380;2023-08-17T05:23:50;6.15;;;1.70;;
69008;SDS011;56065;52.472;13.380;2023-08-17T05:26:16;4.23;;;1.23;;
69008;SDS011;56065;52.472;13.380;2023-08-17T05:28:42;5.35;;;1.20;;
69008;SDS011;56065;52.472;13.380;2023-08-17T05:31:08;7.13;;;1.50;;
69008;SDS011;56065;52.472;13.380;2023-08-17T05:33:34;6.65;;;1.48;;
69008;SDS011;56065;52.472;13.380;2023-08-17T05:35:59;5.13;;;1.40;;
69008;SDS011;56065;52.472;13.380;2023-08-17T05:38:25;5.90;;;1.70;;
69008;SDS011;56065;52.472;13.380;2023-08-17T05:40:54;5.40;;;1.50;;
69008;SDS011;56065;52.472;13.380;2023-08-17T05:43:23;5.30;;;1.58;;
69008;SDS011;56065;52.472;13.380;2023-08-17T05:45:49;4.82;;;1.20;;
69008;SDS011;56065;52.472;13.380;2023-08-17T05:48:14;7.43;;;1.60;;
69008;SDS011;56065;52.472;13.380;2023-08-17T05:50:43;4.68;;;1.40;;
69008;SDS011;56065;52.472;13.380;2023-08-17T05:53:09;5.07;;;1.60;;
69008;SDS011;56065;52.472;13.380;2023-08-17T05:55:34;6.20;;;1.60;;
69008;SDS011;56065;52.472;13.380;2023-08-17T05:57:59;7.87;;;1.73;;
69008;SDS011;56065;52.472;13.380;2023-08-17T06:00:25;4.73;;;1.57;;
69008;SDS011;56065;52.472;13.380;2023-08-17T06:02:51;9.43;;;1.80;;
69008;SDS011;56065;52.472;13.380;2023-08-17T06:05:19;6.43;;;1.80;;
69008;SDS011;56065;52.472;13.380;2023-08-17T06:07:47;4.57;;;1.77;;
69008;SDS011;56065;52.472;13.380;2023-08-17T06:10:13;5.90;;;1.53;;
69008;SDS011;56065;52.472;13.380;2023-08-17T06:12:38;6.97;;;1.57;;
69008;SDS011;56065;52.472;13.380;2023-08-17T06:15:04;6.53;;;1.30;;
69008;SDS011;56065;52.472;13.380;2023-08-17T06:17:30;5.57;;;1.60;;
69008;SDS011;56065;52.472;13.380;2023-08-17T06:19:55;5.45;;;1.33;;
69008;SDS011;56065;52.472;13.380;2023-08-17T06:22:21;6.30;;;1.80;;
69008;SDS011;56065;52.472;13.380;2023-08-17T06:24:46;4.72;;;1.50;;
69008;SDS011;56065;52.472;13.380;2023-08-17T06:27:13;6.67;;;1.70;;
69008;SDS011;56065;52.472;13.380;2023-08-17T06:29:40;4.35;;;1.50;;
69008;SDS011;56065;52.472;13.380;2023-08-17T06:32:05;4.63;;;1.50;;
69008;SDS011;56065;52.472;13.380;2023-08-17T06:34:31;7.13;;;1.65;;
69008;SDS011;56065;52.472;13.380;2023-08-17T06:36:57;4.57;;;1.77;;
69008;SDS011;56065;52.472;13.380;2023-08-17T06:39:24;5.30;;;1.75;;
69008;SDS011;56065;52.472;13.380;2023-08-17T06:41:49;5.77;;;1.87;;
69008;SDS011;56065;52.472;13.380;2023-08-17T06:44:15;6.00;;;1.83;;
69008;SDS011;56065;52.472;13.380;2023-08-17T06:46:41;4.50;;;1.40;;
69008;SDS011;56065;52.472;13.380;2023-08-17T06:49:07;6.73;;;1.87;;
69008;SDS011;56065;52.472;13.380;2023-08-17T06:51:33;7.15;;;1.90;;
69008;SDS011;56065;52.472;13.380;2023-08-17T06:53:59;7.90;;;1.70;;
69008;SDS011;56065;52.472;13.380;2023-08-17T06:56:24;5.50;;;1.67;;
69008;SDS011;56065;52.472;13.380;2023-08-17T06:58:50;6.07;;;1.80;;
69008;SDS011;56065;52.472;13.380;2023-08-17T07:01:15;7.25;;;1.63;;
69008;SDS011;56065;52.472;13.380;2023-08-17T07:03:41;5.80;;;2.00;;
69008;SDS011;56065;52.472;13.380;2023-08-17T07:06:06;6.57;;;1.50;;
69008;SDS011;56065;52.472;13.380;2023-08-17T07:08:32;3.92;;;1.58;;
69008;SDS011;56065;52.472;13.380;2023-08-17T07:10:58;6.97;;;1.70;;
69008;SDS011;56065;52.472;13.380;2023-08-17T07:13:23;6.47;;;2.07;;
69008;SDS011;56065;52.472;13.380;2023-08-17T07:15:48;5.78;;;1.92;;
69008;SDS011;56065;52.472;13.380;2023-08-17T07:18:14;5.90;;;1.70;;
69008;SDS011;56065;52.472;13.380;2023-08-17T07:20:39;5.13;;;1.60;;
69008;SDS011;56065;52.472;13.380;2023-08-17T07:23:05;5.00;;;1.40;;
69008;SDS011;56065;52.472;13.380;2023-08-17T07:25:30;4.80;;;1.55;;
69008;SDS011;56065;52.472;13.380;2023-08-17T07:27:56;6.97;;;1.63;;
69008;SDS011;56065;52.472;13.380;2023-08-17T07:30:21;8.10;;;1.90;;
69008;SDS011;56065;52.472;13.380;2023-08-17T07:32:46;6.73;;;2.00;;
69008;SDS011;56065;52.472;13.380;2023-08-17T07:35:12;5.73;;;1.60;;
69008;SDS011;56065;52.472;13.380;2023-08-17T07:37:37;6.57;;;1.80;;
69008;SDS011;56065;52.472;13.380;2023-08-17T07:40:03;6.77;;;1.93;;
69008;SDS011;56065;52.472;13.380;2023-08-17T07:42:28;6.53;;;2.03;;
69008;SDS011;56065;52.472;13.380;2023-08-17T07:44:54;6.70;;;1.80;;
69008;SDS011;56065;52.472;13.380;2023-08-17T07:47:19;4.57;;;1.47;;
69008;SDS011;56065;52.472;13.380;2023-08-17T07:49:44;7.63;;;1.60;;
69008;SDS011;56065;52.472;13.380;2023-08-17T07:52:10;5.30;;;1.80;;
69008;SDS011;56065;52.472;13.380;2023-08-17T07:54:35;5.65;;;1.73;;
69008;SDS011;56065;52.472;13.380;2023-08-17T07:57:00;7.23;;;2.00;;
69008;SDS011;56065;52.472;13.380;2023-08-17T07:59:28;5.23;;;1.67;;
69008;SDS011;56065;52.472;13.380;2023-08-17T08:01:53;7.05;;;1.77;;
69008;SDS011;56065;52.472;13.380;2023-08-17T08:04:19;5.50;;;1.60;;
69008;SDS011;56065;52.472;13.380;2023-08-17T08:06:44;5.60;;;1.50;;
69008;SDS011;56065;52.472;13.380;2023-08-17T08:09:09;4.23;;;1.43;;
69008;SDS011;56065;52.472;13.380;2023-08-17T08:11:35;7.93;;;2.40;;
69008;SDS011;56065;52.472;13.380;2023-08-17T08:14:00;4.93;;;1.90;;
69008;SDS011;56065;52.472;13.380;2023-08-17T08:16:26;6.27;;;2.07;;
69008;SDS011;56065;52.472;13.380;2023-08-17T08:18:51;4.55;;;1.70;;
69008;SDS011;56065;52.472;13.380;2023-08-17T08:21:17;7.50;;;2.13;;
69008;SDS011;56065;52.472;13.380;2023-08-17T08:23:42;5.47;;;2.47;;
69008;SDS011;56065;52.472;13.380;2023-08-17T08:26:07;5.70;;;2.53;;
69008;SDS011;56065;52.472;13.380;2023-08-17T08:28:33;6.63;;;2.03;;
69008;SDS011;56065;52.472;13.380;2023-08-17T08:31:01;6.33;;;2.43;;
69008;SDS011;56065;52.472;13.380;2023-08-17T08:33:28;5.90;;;2.25;;
69008;SDS011;56065;52.472;13.380;2023-08-17T08:35:53;6.30;;;2.00;;
69008;SDS011;56065;52.472;13.380;2023-08-17T08:38:18;6.53;;;2.40;;
69008;SDS011;56065;52.472;13.380;2023-08-17T08:40:44;5.90;;;1.90;;
69008;SDS011;56065;52.472;13.380;2023-08-17T08:43:12;5.78;;;1.90;;
69008;SDS011;56065;52.472;13.380;2023-08-17T08:45:38;6.18;;;1.98;;
69008;SDS011;56065;52.472;13.380;2023-08-17T08:48:06;6.93;;;2.33;;
69008;SDS011;56065;52.472;13.380;2023-08-17T08:50:33;5.47;;;2.20;;
69008;SDS011;56065;52.472;13.380;2023-08-17T08:53:01;5.05;;;2.33;;
69008;SDS011;56065;52.472;13.380;2023-08-17T08:55:29;7.43;;;2.90;;
69008;SDS011;56065;52.472;13.380;2023-08-17T08:58:01;5.63;;;2.80;;
69008;SDS011;56065;52.472;13.380;2023-08-17T09:00:28;7.70;;;3.15;;
69008;SDS011;56065;52.472;13.380;2023-08-17T09:02:55;6.93;;;2.80;;
69008;SDS011;56065;52.472;13.380;2023-08-17T09:05:21;8.85;;;2.75;;
69008;SDS011;56065;52.472;13.380;2023-08-17T09:07:50;7.00;;;2.60;;
69008;SDS011;56065;52.472;13.380;2023-08-17T09:10:17;6.80;;;3.15;;
69008;SDS011;56065;52.472;13.380;2023-08-17T09:12:44;6.63;;;2.60;;
69008;SDS011;56065;52.472;13.380;2023-08-17T09:15:11;5.78;;;2.30;;
69008;SDS011;56065;52.472;13.380;2023-08-17T09:17:36;6.23;;;2.40;;
69008;SDS011;56065;52.472;13.380;2023-08-17T09:20:01;5.20;;;2.20;;
69008;SDS011;56065;52.472;13.380;2023-08-17T09:22:41;6.25;;;2.47;;
69008;SDS011;56065;52.472;13.380;2023-08-17T09:25:08;8.50;;;2.67;;
69008;SDS011;56065;52.472;13.380;2023-08-17T09:27:38;6.53;;;2.50;;
69008;SDS011;56065;52.472;13.380;2023-08-17T09:30:08;6.17;;;2.37;;
69008;SDS011;56065;52.472;13.380;2023-08-17T09:32:34;5.82;;;2.78;;
69008;SDS011;56065;52.472;13.380;2023-08-17T09:35:01;5.68;;;2.28;;
69008;SDS011;56065;52.472;13.380;2023-08-17T09:37:27;5.75;;;2.50;;
69008;SDS011;56065;52.472;13.380;2023-08-17T09:39:53;8.13;;;2.80;;
69008;SDS011;56065;52.472;13.380;2023-08-17T09:42:18;7.13;;;2.67;;
69008;SDS011;56065;52.472;13.380;2023-08-17T09:44:46;7.95;;;2.80;;
69008;SDS011;56065;52.472;13.380;2023-08-17T09:47:12;6.97;;;2.40;;
69008;SDS011;56065;52.472;13.380;2023-08-17T09:49:37;7.43;;;2.53;;
69008;SDS011;56065;52.472;13.380;2023-08-17T09:52:03;6.47;;;3.10;;
69008;SDS011;56065;52.472;13.380;2023-08-17T09:54:30;12.98;;;2.75;;
69008;SDS011;56065;52.472;13.380;2023-08-17T09:56:56;6.47;;;2.45;;
69008;SDS011;56065;52.472;13.380;2023-08-17T09:59:23;7.30;;;2.50;;
69008;SDS011;56065;52.472;13.380;2023-08-17T10:01:49;9.33;;;3.03;;
69008;SDS011;56065;52.472;13.380;2023-08-17T10:04:22;7.47;;;2.83;;
69008;SDS011;56065;52.472;13.380;2023-08-17T10:06:50;7.78;;;2.25;;
69008;SDS011;56065;52.472;13.380;2023-08-17T10:09:23;6.22;;;2.50;;
69008;SDS011;56065;52.472;13.380;2023-08-17T10:11:53;4.63;;;2.27;;
69008;SDS011;56065;52.472;13.380;2023-08-17T10:14:23;6.35;;;2.60;;
69008;SDS011;56065;52.472;13.380;2023-08-17T10:17:00;7.28;;;2.38;;
69008;SDS011;56065;52.472;13.380;2023-08-17T10:19:37;9.13;;;2.50;;
69008;SDS011;56065;52.472;13.380;2023-08-17T10:25:28;8.60;;;2.30;;
69008;SDS011;56065;52.472;13.380;2023-08-17T10:27:54;5.43;;;2.60;;
69008;SDS011;56065;52.472;13.380;2023-08-17T10:30:20;6.07;;;2.85;;
69008;SDS011;56065;52.472;13.380;2023-08-17T10:32:45;8.97;;;3.23;;
69008;SDS011;56065;52.472;13.380;2023-08-17T10:35:11;7.65;;;2.95;;
69008;SDS011;56065;52.472;13.380;2023-08-17T10:37:38;6.45;;;2.72;;
69008;SDS011;56065;52.472;13.380;2023-08-17T10:40:03;5.50;;;2.53;;
69008;SDS011;56065;52.472;13.380;2023-08-17T10:42:30;7.60;;;3.10;;
69008;SDS011;56065;52.472;13.380;2023-08-17T10:45:00;5.80;;;2.83;;
69008;SDS011;56065;52.472;13.380;2023-08-17T10:47:29;5.65;;;2.50;;
69008;SDS011;56065;52.472;13.380;2023-08-17T10:49:57;7.32;;;2.55;;
69008;SDS011;56065;52.472;13.380;2023-08-17T10:52:47;6.70;;;2.50;;
69008;SDS011;56065;52.472;13.380;2023-08-17T10:55:13;6.15;;;3.00;;
69008;SDS011;56065;52.472;13.380;2023-08-17T10:57:39;6.43;;;2.60;;
69008;SDS011;56065;52.472;13.380;2023-08-17T11:02:38;6.17;;;3.40;;
69008;SDS011;56065;52.472;13.380;2023-08-17T11:05:04;5.30;;;2.67;;
69008;SDS011;56065;52.472;13.380;2023-08-17T11:07:42;7.57;;;3.50;;
69008;SDS011;56065;52.472;13.380;2023-08-17T11:10:12;7.25;;;3.10;;
69008;SDS011;56065;52.472;13.380;2023-08-17T11:12:53;5.68;;;2.78;;
69008;SDS011;56065;52.472;13.380;2023-08-17T11:15:21;5.95;;;2.85;;
69008;SDS011;56065;52.472;13.380;2023-08-17T11:17:48;8.37;;;2.80;;
69008;SDS011;56065;52.472;13.380;2023-08-17T11:20:13;6.07;;;2.60;;
69008;SDS011;56065;52.472;13.380;2023-08-17T11:22:39;7.83;;;3.20;;
69008;SDS011;56065;52.472;13.380;2023-08-17T11:25:04;7.27;;;3.07;;
69008;SDS011;56065;52.472;13.380;2023-08-17T11:27:30;6.05;;;2.80;;
69008;SDS011;56065;52.472;13.380;2023-08-17T11:29:56;6.83;;;2.90;;
69008;SDS011;56065;52.472;13.380;2023-08-17T11:32:21;5.83;;;2.70;;
69008;SDS011;56065;52.472;13.380;2023-08-17T11:34:47;5.90;;;2.83;;
69008;SDS011;56065;52.472;13.380;2023-08-17T11:37:12;9.20;;;3.47;;
69008;SDS011;56065;52.472;13.380;2023-08-17T11:39:37;7.85;;;3.05;;
69008;SDS011;56065;52.472;13.380;2023-08-17T11:42:03;6.10;;;2.73;;
69008;SDS011;56065;52.472;13.380;2023-08-17T11:44:29;8.10;;;2.80;;
69008;SDS011;56065;52.472;13.380;2023-08-17T11:46:54;7.10;;;3.13;;
69008;SDS011;56065;52.472;13.380;2023-08-17T11:49:20;7.80;;;3.20;;
69008;SDS011;56065;52.472;13.380;2023-08-17T11:51:47;7.03;;;3.13;;
69008;SDS011;56065;52.472;13.380;2023-08-17T11:54:12;6.70;;;2.83;;
69008;SDS011;56065;52.472;13.380;2023-08-17T11:56:38;7.32;;;3.05;;
69008;SDS011;56065;52.472;13.380;2023-08-17T11:59:09;7.83;;;3.03;;
69008;SDS011;56065;52.472;13.380;2023-08-17T12:01:38;5.32;;;2.90;;
69008;SDS011;56065;52.472;13.380;2023-08-17T12:04:04;6.93;;;3.23;;
69008;SDS011;56065;52.472;13.380;2023-08-17T12:06:30;7.93;;;3.47;;
69008;SDS011;56065;52.472;13.380;2023-08-17T12:08:56;7.93;;;3.43;;
69008;SDS011;56065;52.472;13.380;2023-08-17T12:11:23;5.55;;;3.03;;
69008;SDS011;56065;52.472;13.380;2023-08-17T12:13:50;7.27;;;3.00;;
69008;SDS011;56065;52.472;13.380;2023-08-17T12:16:16;6.43;;;3.50;;
69008;SDS011;56065;52.472;13.380;2023-08-17T12:18:49;6.00;;;3.05;;
69008;SDS011;56065;52.472;13.380;2023-08-17T12:21:20;7.30;;;3.20;;
69008;SDS011;56065;52.472;13.380;2023-08-17T12:23:47;6.63;;;3.35;;
69008;SDS011;56065;52.472;13.380;2023-08-17T12:26:17;9.00;;;3.33;;
69008;SDS011;56065;52.472;13.380;2023-08-17T12:28:44;6.18;;;3.65;;
69008;SDS011;56065;52.472;13.380;2023-08-17T12:31:09;7.53;;;3.57;;
69008;SDS011;56065;52.472;13.380;2023-08-17T12:33:35;5.63;;;3.13;;
69008;SDS011;56065;52.472;13.380;2023-08-17T12:36:00;7.67;;;3.27;;
69008;SDS011;56065;52.472;13.380;2023-08-17T12:38:26;8.80;;;3.30;;
69008;SDS011;56065;52.472;13.380;2023-08-17T12:40:51;6.37;;;3.20;;
69008;SDS011;56065;52.472;13.380;2023-08-17T12:43:17;7.83;;;3.40;;
69008;SDS011;56065;52.472;13.380;2023-08-17T12:45:42;6.03;;;3.47;;
69008;SDS011;56065;52.472;13.380;2023-08-17T12:48:07;6.63;;;3.28;;
69008;SDS011;56065;52.472;13.380;2023-08-17T12:50:33;8.40;;;3.23;;
69008;SDS011;56065;52.472;13.380;2023-08-17T12:52:58;7.97;;;3.57;;
69008;SDS011;56065;52.472;13.380;2023-08-17T12:55:23;7.33;;;3.57;;
69008;SDS011;56065;52.472;13.380;2023-08-17T12:57:49;7.50;;;3.30;;
69008;SDS011;56065;52.472;13.380;2023-08-17T13:00:15;6.25;;;3.17;;
69008;SDS011;56065;52.472;13.380;2023-08-17T13:02:40;6.30;;;3.60;;
69008;SDS011;56065;52.472;13.380;2023-08-17T13:05:05;7.00;;;3.70;;
69008;SDS011;56065;52.472;13.380;2023-08-17T13:07:31;6.05;;;3.33;;
69008;SDS011;56065;52.472;13.380;2023-08-17T13:09:56;7.50;;;3.70;;
69008;SDS011;56065;52.472;13.380;2023-08-17T13:12:22;6.60;;;3.90;;
69008;SDS011;56065;52.472;13.380;2023-08-17T13:14:47;6.17;;;3.53;;
69008;SDS011;56065;52.472;13.380;2023-08-17T13:17:12;6.77;;;3.50;;
69008;SDS011;56065;52.472;13.380;2023-08-17T13:19:41;7.45;;;3.58;;
69008;SDS011;56065;52.472;13.380;2023-08-17T13:22:06;7.77;;;4.20;;
69008;SDS011;56065;52.472;13.380;2023-08-17T13:24:32;6.40;;;3.97;;
69008;SDS011;56065;52.472;13.380;2023-08-17T13:26:57;7.80;;;4.10;;
69008;SDS011;56065;52.472;13.380;2023-08-17T13:29:22;6.70;;;3.83;;
69008;SDS011;56065;52.472;13.380;2023-08-17T13:31:48;6.10;;;3.50;;
69008;SDS011;56065;52.472;13.380;2023-08-17T13:34:13;7.43;;;3.80;;
69008;SDS011;56065;52.472;13.380;2023-08-17T13:36:39;6.57;;;4.07;;
69008;SDS011;56065;52.472;13.380;2023-08-17T13:39:04;7.67;;;3.90;;
69008;SDS011;56065;52.472;13.380;2023-08-17T13:41:31;7.27;;;3.60;;
69008;SDS011;56065;52.472;13.380;2023-08-17T13:43:56;8.93;;;4.17;;
69008;SDS011;56065;52.472;13.380;2023-08-17T13:46:22;6.60;;;3.58;;
69008;SDS011;56065;52.472;13.380;2023-08-17T13:48:48;6.93;;;3.58;;
69008;SDS011;56065;52.472;13.380;2023-08-17T13:51:13;8.40;;;3.37;;
69008;SDS011;56065;52.472;13.380;2023-08-17T13:53:39;10.20;;;3.57;;
69008;SDS011;56065;52.472;13.380;2023-08-17T13:56:04;7.23;;;3.90;;
69008;SDS011;56065;52.472;13.380;2023-08-17T13:58:29;5.90;;;3.60;;
69008;SDS011;56065;52.472;13.380;2023-08-17T14:00:55;6.83;;;3.63;;
69008;SDS011;56065;52.472;13.380;2023-08-17T14:03:20;6.97;;;3.53;;
69008;SDS011;56065;52.472;13.380;2023-08-17T14:05:46;7.23;;;3.40;;
69008;SDS011;56065;52.472;13.380;2023-08-17T14:08:11;6.87;;;3.50;;
69008;SDS011;56065;52.472;13.380;2023-08-17T14:10:36;8.03;;;3.47;;
69008;SDS011;56065;52.472;13.380;2023-08-17T14:13:02;7.15;;;3.70;;
69008;SDS011;56065;52.472;13.380;2023-08-17T14:15:27;6.67;;;3.87;;
69008;SDS011;56065;52.472;13.380;2023-08-17T14:17:53;7.03;;;3.67;;
69008;SDS011;56065;52.472;13.380;2023-08-17T14:20:18;7.27;;;3.80;;
69008;SDS011;56065;52.472;13.380;2023-08-17T14:22:43;7.00;;;3.40;;
69008;SDS011;56065;52.472;13.380;2023-08-17T14:25:09;5.63;;;3.30;;
69008;SDS011;56065;52.472;13.380;2023-08-17T14:27:34;7.20;;;3.40;;
69008;SDS011;56065;52.472;13.380;2023-08-17T14:29:59;6.40;;;3.40;;
69008;SDS011;56065;52.472;13.380;2023-08-17T14:32:27;7.60;;;3.55;;
69008;SDS011;56065;52.472;13.380;2023-08-17T14:34:53;7.32;;;3.30;;
69008;SDS011;56065;52.472;13.380;2023-08-17T14:37:19;6.20;;;3.50;;
69008;SDS011;56065;52.472;13.380;2023-08-17T14:39:44;6.30;;;3.27;;